sensor_id;sensor_type;location;lat;lon;timestamp;noise_LAeq;noise_LA_min;noise_LA_max;noise_LA01;noise_LA95
70740;Laerm;58330;51.888;11.052;2023-06-01T00:00:49;54.06;-6.65;60.93;;
70740;Laerm;58330;51.888;11.052;2023-06-01T00:03:16;54.58;-6.71;61.55;;
70740;Laerm;58330;51.888;11.052;2023-06-01T00:05:42;54.91;-6.21;62.10;;
70740;Laerm;58330;51.888;11.052;2023-06-01T00:08:08;55.27;-5.92;61.89;;
70740;Laerm;58330;51.888;11.052;2023-06-01T00:10:35;55.94;-5.74;62.88;;
70740;Laerm;58330;51.888;11.052;2023-06-01T00:13:03;56.05;-6.24;62.41;;
70740;Laerm;58330;51.888;11.052;2023-06-01T00:15:29;56.39;-5.60;62.97;;
70740;Laerm;58330;51.888;11.052;2023-06-01T00:17:55;56.75;-5.48;63.68;;
70740;Laerm;58330;51.888;11.052;2023-06-01T00:20:22;56.71;-5.04;63.58;;
70740;Laerm;58330;51.888;11.052;2023-06-01T00:22:49;56.89;-5.10;64.09;;
70740;Laerm;58330;51.888;11.052;2023-06-01T00:25:16;56.93;-4.35;64.40;;
70740;Laerm;58330;51.888;11.052;2023-06-01T00:27:42;57.04;-3.45;64.62;;
70740;Laerm;58330;51.888;11.052;2023-06-01T00:30:10;57.66;-3.32;64.97;;
70740;Laerm;58330;51.888;11.052;2023-06-01T00:32:37;58.15;-3.41;64.81;;
70740;Laerm;58330;51.888;11.052;2023-06-01T00:35:04;58.58;-3.83;65.98;;
70740;Laerm;58330;51.888;11.052;2023-06-01T00:37:30;59.13;-1.00;65.40;;
70740;Laerm;58330;51.888;11.052;2023-06-01T00:39:57;60.24;1.19;66.74;;
70740;Laerm;58330;51.888;11.052;2023-06-01T00:42:23;62.06;5.33;68.18;;
70740;Laerm;58330;51.888;11.052;2023-06-01T00:44:49;63.30;10.45;68.33;;
70740;Laerm;58330;51.888;11.052;2023-06-01T00:47:17;65.57;51.56;68.91;;
70740;Laerm;58330;51.888;11.052;2023-06-01T00:49:44;66.95;55.59;68.88;;
70740;Laerm;58330;51.888;11.052;2023-06-01T00:52:10;67.27;55.61;68.97;;
70740;Laerm;58330;51.888;11.052;2023-06-01T00:54:37;66.53;61.16;68.65;;
70740;Laerm;58330;51.888;11.052;2023-06-01T00:57:03;64.64;60.27;68.65;;
70740;Laerm;58330;51.888;11.052;2023-06-01T00:59:31;63.04;60.16;67.86;;
70740;Laerm;58330;51.888;11.052;2023-06-01T01:01:58;62.75;60.04;65.66;;
70740;Laerm;58330;51.888;11.052;2023-06-01T01:04:25;63.48;60.47;65.50;;
70740;Laerm;58330;51.888;11.052;2023-06-01T01:06:53;63.92;50.37;65.55;;
70740;Laerm;58330;51.888;11.052;2023-06-01T01:09:27;62.10;39.96;68.76;;
70740;Laerm;58330;51.888;11.052;2023-06-01T01:11:57;67.19;61.36;68.79;;
70740;Laerm;58330;51.888;11.052;2023-06-01T01:14:27;67.28;58.70;68.72;;
70740;Laerm;58330;51.888;11.052;2023-06-01T01:16:57;67.13;58.01;69.03;;
70740;Laerm;58330;51.888;11.052;2023-06-01T01:19:40;67.02;58.78;68.83;;
70740;Laerm;58330;51.888;11.052;2023-06-01T01:22:12;67.27;61.37;68.84;;
70740;Laerm;58330;51.888;11.052;2023-06-01T01:24:48;67.21;61.76;68.86;;
70740;Laerm;58330;51.888;11.052;2023-06-01T01:27:22;65.14;60.13;68.47;;
70740;Laerm;58330;51.888;11.052;2023-06-01T01:29:52;62.78;59.74;67.34;;
70740;Laerm;58330;51.888;11.052;2023-06-01T01:32:19;62.89;59.86;65.24;;
70740;Laerm;58330;51.888;11.052;2023-06-01T01:34:46;63.39;60.14;65.48;;
70740;Laerm;58330;51.888;11.052;2023-06-01T01:37:14;63.94;61.15;65.41;;
70740;Laerm;58330;51.888;11.052;2023-06-01T01:39:40;64.32;61.30;65.45;;
70740;Laerm;58330;51.888;11.052;2023-06-01T01:42:07;63.95;61.38;65.28;;
70740;Laerm;58330;51.888;11.052;2023-06-01T01:44:34;62.47;58.16;64.45;;
70740;Laerm;58330;51.888;11.052;2023-06-01T01:47:03;60.01;53.22;62.85;;
70740;Laerm;58330;51.888;11.052;2023-06-01T01:49:36;54.64;50.25;59.07;;
70740;Laerm;58330;51.888;11.052;2023-06-01T01:52:05;51.63;50.05;53.70;;
70740;Laerm;58330;51.888;11.052;2023-06-01T01:54:33;53.19;50.28;57.43;;
70740;Laerm;58330;51.888;11.052;2023-06-01T01:57:02;57.06;52.67;60.07;;
70740;Laerm;58330;51.888;11.052;2023-06-01T01:59:30;59.84;58.15;61.99;;
70740;Laerm;58330;51.888;11.052;2023-06-01T02:01:56;61.93;59.53;64.11;;
70740;Laerm;58330;51.888;11.052;2023-06-01T02:04:24;62.58;59.73;64.08;;
70740;Laerm;58330;51.888;11.052;2023-06-01T02:06:51;59.66;55.12;62.40;;
70740;Laerm;58330;51.888;11.052;2023-06-01T02:09:17;54.65;51.11;59.32;;
70740;Laerm;58330;51.888;11.052;2023-06-01T02:11:43;57.38;51.37;62.24;;
70740;Laerm;58330;51.888;11.052;2023-06-01T02:14:10;61.78;57.83;63.67;;
70740;Laerm;58330;51.888;11.052;2023-06-01T02:16:36;62.21;60.08;63.58;;
70740;Laerm;58330;51.888;11.052;2023-06-01T02:19:02;60.05;58.31;62.10;;
70740;Laerm;58330;51.888;11.052;2023-06-01T02:21:30;59.62;58.44;61.12;;
70740;Laerm;58330;51.888;11.052;2023-06-01T02:23:57;60.52;58.90;61.82;;
70740;Laerm;58330;51.888;11.052;2023-06-01T02:26:29;61.45;60.06;62.56;;
70740;Laerm;58330;51.888;11.052;2023-06-01T02:28:55;61.81;60.74;62.72;;
70740;Laerm;58330;51.888;11.052;2023-06-01T02:31:22;61.79;60.65;63.03;;
70740;Laerm;58330;51.888;11.052;2023-06-01T02:33:48;61.27;59.67;62.58;;
70740;Laerm;58330;51.888;11.052;2023-06-01T02:36:15;60.31;58.50;61.90;;
70740;Laerm;58330;51.888;11.052;2023-06-01T02:41:31;56.77;54.13;58.50;;
70740;Laerm;58330;51.888;11.052;2023-06-01T02:43:58;55.96;53.94;57.64;;
70740;Laerm;58330;51.888;11.052;2023-06-01T02:46:24;55.03;53.28;57.11;;
70740;Laerm;58330;51.888;11.052;2023-06-01T02:48:50;54.96;53.75;56.16;;
70740;Laerm;58330;51.888;11.052;2023-06-01T02:51:17;55.43;54.24;56.64;;
70740;Laerm;58330;51.888;11.052;2023-06-01T02:53:44;55.97;40.03;63.88;;
70740;Laerm;58330;51.888;11.052;2023-06-01T02:56:11;58.45;37.80;62.87;;
70740;Laerm;58330;51.888;11.052;2023-06-01T02:58:39;55.41;53.26;58.82;;
70740;Laerm;58330;51.888;11.052;2023-06-01T03:01:06;57.07;39.06;63.80;;
70740;Laerm;58330;51.888;11.052;2023-06-01T03:03:36;56.11;38.18;65.45;;
70740;Laerm;58330;51.888;11.052;2023-06-01T03:06:03;57.02;38.21;62.99;;
70740;Laerm;58330;51.888;11.052;2023-06-01T03:08:30;56.74;54.71;58.39;;
70740;Laerm;58330;51.888;11.052;2023-06-01T03:10:56;57.04;40.37;59.29;;
70740;Laerm;58330;51.888;11.052;2023-06-01T03:13:42;56.47;47.21;60.42;;
70740;Laerm;58330;51.888;11.052;2023-06-01T03:16:08;61.37;-329.56;95.80;;
70740;Laerm;58330;51.888;11.052;2023-06-01T03:18:35;5.00;5.00;5.00;;
70740;Laerm;58330;51.888;11.052;2023-06-01T03:21:01;5.00;5.00;5.00;;
70740;Laerm;58330;51.888;11.052;2023-06-01T03:23:27;5.00;5.00;5.00;;
70740;Laerm;58330;51.888;11.052;2023-06-01T03:25:55;5.00;5.00;5.00;;
70740;Laerm;58330;51.888;11.052;2023-06-01T03:28:22;5.00;5.00;5.00;;
70740;Laerm;58330;51.888;11.052;2023-06-01T03:30:49;5.00;5.00;5.00;;
70740;Laerm;58330;51.888;11.052;2023-06-01T03:33:16;5.00;5.00;5.00;;
70740;Laerm;58330;51.888;11.052;2023-06-01T03:35:42;5.00;5.00;5.00;;
70740;Laerm;58330;51.888;11.052;2023-06-01T03:38:09;5.00;5.00;5.00;;
70740;Laerm;58330;51.888;11.052;2023-06-01T03:40:35;5.00;5.00;5.00;;
70740;Laerm;58330;51.888;11.052;2023-06-01T03:43:02;5.00;5.00;5.00;;
70740;Laerm;58330;51.888;11.052;2023-06-01T03:45:28;5.00;5.00;5.00;;
70740;Laerm;58330;51.888;11.052;2023-06-01T03:47:55;5.00;5.00;5.00;;
70740;Laerm;58330;51.888;11.052;2023-06-01T03:50:22;5.00;5.00;5.00;;
70740;Laerm;58330;51.888;11.052;2023-06-01T03:52:48;5.00;5.00;5.00;;
70740;Laerm;58330;51.888;11.052;2023-06-01T03:55:14;5.00;5.00;5.00;;
70740;Laerm;58330;51.888;11.052;2023-06-01T03:57:40;5.00;5.00;5.00;;
70740;Laerm;58330;51.888;11.052;2023-06-01T04:00:07;5.00;5.00;5.00;;
70740;Laerm;58330;51.888;11.052;2023-06-01T04:02:43;5.00;5.00;5.00;;
70740;Laerm;58330;51.888;11.052;2023-06-01T04:05:11;5.00;5.00;5.00;;
70740;Laerm;58330;51.888;11.052;2023-06-01T04:07:41;5.00;5.00;5.00;;
70740;Laerm;58330;51.888;11.052;2023-06-01T04:10:08;5.00;5.00;5.00;;
70740;Laerm;58330;51.888;11.052;2023-06-01T04:12:36;5.00;5.00;5.00;;
70740;Laerm;58330;51.888;11.052;2023-06-01T04:15:18;5.00;5.00;5.00;;
70740;Laerm;58330;51.888;11.052;2023-06-01T04:17:45;5.00;5.00;5.00;;
70740;Laerm;58330;51.888;11.052;2023-06-01T04:20:13;5.00;5.00;5.00;;
70740;Laerm;58330;51.888;11.052;2023-06-01T04:22:40;5.00;5.00;5.00;;
70740;Laerm;58330;51.888;11.052;2023-06-01T04:25:08;5.00;5.00;5.00;;
70740;Laerm;58330;51.888;11.052;2023-06-01T04:27:34;5.00;5.00;5.00;;
70740;Laerm;58330;51.888;11.052;2023-06-01T04:30:03;5.00;5.00;5.00;;
70740;Laerm;58330;51.888;11.052;2023-06-01T04:32:32;5.00;5.00;5.00;;
70740;Laerm;58330;51.888;11.052;2023-06-01T04:35:00;5.00;5.00;5.00;;
70740;Laerm;58330;51.888;11.052;2023-06-01T04:37:27;5.00;5.00;5.00;;
70740;Laerm;58330;51.888;11.052;2023-06-01T04:39:54;5.00;5.00;5.00;;
70740;Laerm;58330;51.888;11.052;2023-06-01T04:42:21;5.00;5.00;5.00;;
70740;Laerm;58330;51.888;11.052;2023-06-01T04:44:48;5.00;5.00;5.00;;
70740;Laerm;58330;51.888;11.052;2023-06-01T04:47:16;5.00;5.00;5.00;;
70740;Laerm;58330;51.888;11.052;2023-06-01T04:49:42;5.00;5.00;5.00;;
70740;Laerm;58330;51.888;11.052;2023-06-01T04:52:09;5.00;5.00;5.00;;
70740;Laerm;58330;51.888;11.052;2023-06-01T04:54:38;5.00;5.00;5.00;;
70740;Laerm;58330;51.888;11.052;2023-06-01T04:57:05;5.00;5.00;5.00;;
70740;Laerm;58330;51.888;11.052;2023-06-01T04:59:31;5.00;5.00;5.00;;
70740;Laerm;58330;51.888;11.052;2023-06-01T05:01:58;5.00;5.00;5.00;;
70740;Laerm;58330;51.888;11.052;2023-06-01T05:04:24;5.00;5.00;5.00;;
70740;Laerm;58330;51.888;11.052;2023-06-01T05:06:51;5.00;5.00;5.00;;
70740;Laerm;58330;51.888;11.052;2023-06-01T05:09:17;5.00;5.00;5.00;;
70740;Laerm;58330;51.888;11.052;2023-06-01T05:11:45;5.00;5.00;5.00;;
70740;Laerm;58330;51.888;11.052;2023-06-01T05:14:11;5.00;5.00;5.00;;
70740;Laerm;58330;51.888;11.052;2023-06-01T05:16:38;5.00;5.00;5.00;;
70740;Laerm;58330;51.888;11.052;2023-06-01T05:19:04;5.00;5.00;5.00;;
70740;Laerm;58330;51.888;11.052;2023-06-01T05:21:30;5.00;5.00;5.00;;
70740;Laerm;58330;51.888;11.052;2023-06-01T05:23:57;5.00;5.00;5.00;;
70740;Laerm;58330;51.888;11.052;2023-06-01T05:26:23;5.00;5.00;5.00;;
70740;Laerm;58330;51.888;11.052;2023-06-01T05:28:51;5.00;5.00;5.00;;
70740;Laerm;58330;51.888;11.052;2023-06-01T05:31:18;5.00;5.00;5.00;;
70740;Laerm;58330;51.888;11.052;2023-06-01T05:33:46;5.00;5.00;5.00;;
70740;Laerm;58330;51.888;11.052;2023-06-01T05:39:16;5.00;5.00;5.00;;
70740;Laerm;58330;51.888;11.052;2023-06-01T05:41:42;5.00;5.00;5.00;;
70740;Laerm;58330;51.888;11.052;2023-06-01T05:44:10;5.00;5.00;5.00;;
70740;Laerm;58330;51.888;11.052;2023-06-01T05:46:36;5.00;5.00;5.00;;
70740;Laerm;58330;51.888;11.052;2023-06-01T05:49:03;5.00;5.00;5.00;;
70740;Laerm;58330;51.888;11.052;2023-06-01T05:51:30;5.00;5.00;5.00;;
70740;Laerm;58330;51.888;11.052;2023-06-01T05:54:08;5.00;5.00;5.00;;
70740;Laerm;58330;51.888;11.052;2023-06-01T05:56:34;5.00;5.00;5.00;;
70740;Laerm;58330;51.888;11.052;2023-06-01T05:59:06;5.00;5.00;5.00;;
70740;Laerm;58330;51.888;11.052;2023-06-01T06:01:36;5.00;5.00;5.00;;
70740;Laerm;58330;51.888;11.052;2023-06-01T06:04:03;5.00;5.00;5.00;;
70740;Laerm;58330;51.888;11.052;2023-06-01T06:06:29;5.00;5.00;5.00;;
70740;Laerm;58330;51.888;11.052;2023-06-01T06:08:56;5.00;5.00;5.00;;
70740;Laerm;58330;51.888;11.052;2023-06-01T06:11:22;5.00;5.00;5.00;;
70740;Laerm;58330;51.888;11.052;2023-06-01T06:13:48;5.00;5.00;5.00;;
70740;Laerm;58330;51.888;11.052;2023-06-01T06:16:15;70.77;-324.33;96.23;;
70740;Laerm;58330;51.888;11.052;2023-06-01T06:18:43;5.00;5.00;5.00;;
70740;Laerm;58330;51.888;11.052;2023-06-01T06:21:09;5.00;5.00;5.00;;
70740;Laerm;58330;51.888;11.052;2023-06-01T06:23:36;5.00;5.00;5.00;;
70740;Laerm;58330;51.888;11.052;2023-06-01T06:26:04;5.00;5.00;5.00;;
70740;Laerm;58330;51.888;11.052;2023-06-01T06:28:31;5.00;5.00;5.00;;
70740;Laerm;58330;51.888;11.052;2023-06-01T06:30:57;5.00;5.00;5.00;;
70740;Laerm;58330;51.888;11.052;2023-06-01T06:33:24;5.00;5.00;5.00;;
70740;Laerm;58330;51.888;11.052;2023-06-01T06:35:52;66.01;-326.54;96.23;;
70740;Laerm;58330;51.888;11.052;2023-06-01T06:38:19;73.73;-325.88;99.23;;
70740;Laerm;58330;51.888;11.052;2023-06-01T06:40:47;77.43;-334.33;99.25;;
70740;Laerm;58330;51.888;11.052;2023-06-01T06:43:14;77.47;-325.88;99.24;;
70740;Laerm;58330;51.888;11.052;2023-06-01T06:45:40;75.07;-324.78;99.21;;
70740;Laerm;58330;51.888;11.052;2023-06-01T06:48:07;78.91;-331.32;99.24;;
70740;Laerm;58330;51.888;11.052;2023-06-01T06:50:33;78.64;-329.56;98.64;;
70740;Laerm;58330;51.888;11.052;2023-06-01T06:53:02;79.67;-324.78;99.26;;
70740;Laerm;58330;51.888;11.052;2023-06-01T06:55:29;5.00;5.00;5.00;;
70740;Laerm;58330;51.888;11.052;2023-06-01T06:57:56;5.00;5.00;5.00;;
70740;Laerm;58330;51.888;11.052;2023-06-01T07:00:22;5.00;5.00;5.00;;
70740;Laerm;58330;51.888;11.052;2023-06-01T07:02:48;5.00;5.00;5.00;;
70740;Laerm;58330;51.888;11.052;2023-06-01T07:05:15;5.00;5.00;5.00;;
70740;Laerm;58330;51.888;11.052;2023-06-01T07:07:41;5.00;5.00;5.00;;
70740;Laerm;58330;51.888;11.052;2023-06-01T07:10:09;5.00;5.00;5.00;;
70740;Laerm;58330;51.888;11.052;2023-06-01T07:12:36;5.00;5.00;5.00;;
70740;Laerm;58330;51.888;11.052;2023-06-01T07:15:02;5.00;5.00;5.00;;
70740;Laerm;58330;51.888;11.052;2023-06-01T07:17:29;5.00;5.00;5.00;;
70740;Laerm;58330;51.888;11.052;2023-06-01T07:20:02;5.00;5.00;5.00;;
70740;Laerm;58330;51.888;11.052;2023-06-01T07:22:32;5.00;5.00;5.00;;
70740;Laerm;58330;51.888;11.052;2023-06-01T07:24:58;5.00;5.00;5.00;;
70740;Laerm;58330;51.888;11.052;2023-06-01T07:27:26;5.00;5.00;5.00;;
70740;Laerm;58330;51.888;11.052;2023-06-01T07:29:53;5.00;5.00;5.00;;
70740;Laerm;58330;51.888;11.052;2023-06-01T07:32:21;5.00;5.00;5.00;;
70740;Laerm;58330;51.888;11.052;2023-06-01T07:34:47;5.00;5.00;5.00;;
70740;Laerm;58330;51.888;11.052;2023-06-01T07:37:20;5.00;5.00;5.00;;
70740;Laerm;58330;51.888;11.052;2023-06-01T07:39:47;5.00;5.00;5.00;;
70740;Laerm;58330;51.888;11.052;2023-06-01T07:42:13;5.00;5.00;5.00;;
70740;Laerm;58330;51.888;11.052;2023-06-01T07:44:41;5.00;5.00;5.00;;
70740;Laerm;58330;51.888;11.052;2023-06-01T07:47:08;5.00;5.00;5.00;;
70740;Laerm;58330;51.888;11.052;2023-06-01T07:49:34;5.00;5.00;5.00;;
70740;Laerm;58330;51.888;11.052;2023-06-01T07:57:49;5.00;5.00;5.00;;
70740;Laerm;58330;51.888;11.052;2023-06-01T08:00:18;5.00;5.00;5.00;;
70740;Laerm;58330;51.888;11.052;2023-06-01T08:02:44;5.00;5.00;5.00;;
70740;Laerm;58330;51.888;11.052;2023-06-01T08:05:11;5.00;5.00;5.00;;
70740;Laerm;58330;51.888;11.052;2023-06-01T08:07:39;5.00;5.00;5.00;;
70740;Laerm;58330;51.888;11.052;2023-06-01T08:10:08;5.00;5.00;5.00;;
70740;Laerm;58330;51.888;11.052;2023-06-01T08:12:34;5.00;5.00;5.00;;
70740;Laerm;58330;51.888;11.052;2023-06-01T08:15:01;79.28;-190.64;99.24;;
70740;Laerm;58330;51.888;11.052;2023-06-01T08:17:30;81.14;-323.91;99.24;;
70740;Laerm;58330;51.888;11.052;2023-06-01T08:19:56;5.00;5.00;5.00;;
70740;Laerm;58330;51.888;11.052;2023-06-01T08:22:23;5.00;5.00;5.00;;
70740;Laerm;58330;51.888;11.052;2023-06-01T08:24:50;5.00;5.00;5.00;;
70740;Laerm;58330;51.888;11.052;2023-06-01T08:27:18;5.00;5.00;5.00;;
70740;Laerm;58330;51.888;11.052;2023-06-01T08:29:45;5.00;5.00;5.00;;
70740;Laerm;58330;51.888;11.052;2023-06-01T08:32:21;5.00;5.00;5.00;;
70740;Laerm;58330;51.888;11.052;2023-06-01T08:34:49;5.00;5.00;5.00;;
70740;Laerm;58330;51.888;11.052;2023-06-01T08:37:16;5.00;5.00;5.00;;
70740;Laerm;58330;51.888;11.052;2023-06-01T08:39:42;5.00;5.00;5.00;;
70740;Laerm;58330;51.888;11.052;2023-06-01T08:42:09;5.00;5.00;5.00;;
70740;Laerm;58330;51.888;11.052;2023-06-01T08:44:40;5.00;5.00;5.00;;
70740;Laerm;58330;51.888;11.052;2023-06-01T08:47:07;5.00;5.00;5.00;;
70740;Laerm;58330;51.888;11.052;2023-06-01T08:49:35;5.00;5.00;5.00;;
70740;Laerm;58330;51.888;11.052;2023-06-01T08:52:11;5.00;5.00;5.00;;
70740;Laerm;58330;51.888;11.052;2023-06-01T08:54:38;5.00;5.00;5.00;;
70740;Laerm;58330;51.888;11.052;2023-06-01T08:57:05;61.26;-0.69;96.22;;
70740;Laerm;58330;51.888;11.052;2023-06-01T08:59:35;57.39;40.42;62.92;;
70740;Laerm;58330;51.888;11.052;2023-06-01T09:02:02;59.88;-325.30;95.53;;
70740;Laerm;58330;51.888;11.052;2023-06-01T09:04:28;5.00;5.00;5.00;;
70740;Laerm;58330;51.888;11.052;2023-06-01T09:06:58;5.00;5.00;5.00;;
70740;Laerm;58330;51.888;11.052;2023-06-01T09:09:27;5.00;5.00;5.00;;
70740;Laerm;58330;51.888;11.052;2023-06-01T09:14:41;5.00;5.00;5.00;;
70740;Laerm;58330;51.888;11.052;2023-06-01T09:17:07;5.00;5.00;5.00;;
70740;Laerm;58330;51.888;11.052;2023-06-01T09:19:41;5.00;5.00;5.00;;
70740;Laerm;58330;51.888;11.052;2023-06-01T09:22:10;5.00;5.00;5.00;;
70740;Laerm;58330;51.888;11.052;2023-06-01T09:24:40;5.00;5.00;5.00;;
70740;Laerm;58330;51.888;11.052;2023-06-01T09:27:07;5.00;5.00;5.00;;
70740;Laerm;58330;51.888;11.052;2023-06-01T09:29:33;5.00;5.00;5.00;;
70740;Laerm;58330;51.888;11.052;2023-06-01T09:32:00;5.00;5.00;5.00;;
70740;Laerm;58330;51.888;11.052;2023-06-01T09:37:15;5.00;5.00;5.00;;
70740;Laerm;58330;51.888;11.052;2023-06-01T09:39:43;5.00;5.00;5.00;;
70740;Laerm;58330;51.888;11.052;2023-06-01T09:42:10;5.00;5.00;5.00;;
70740;Laerm;58330;51.888;11.052;2023-06-01T09:44:38;5.00;5.00;5.00;;
70740;Laerm;58330;51.888;11.052;2023-06-01T09:47:07;5.00;5.00;5.00;;
70740;Laerm;58330;51.888;11.052;2023-06-01T09:49:37;5.00;5.00;5.00;;
70740;Laerm;58330;51.888;11.052;2023-06-01T09:52:08;5.00;5.00;5.00;;
70740;Laerm;58330;51.888;11.052;2023-06-01T09:54:36;5.00;5.00;5.00;;
70740;Laerm;58330;51.888;11.052;2023-06-01T09:57:04;5.00;5.00;5.00;;
70740;Laerm;58330;51.888;11.052;2023-06-01T09:59:37;5.00;5.00;5.00;;
70740;Laerm;58330;51.888;11.052;2023-06-01T10:02:05;5.00;5.00;5.00;;
70740;Laerm;58330;51.888;11.052;2023-06-01T10:04:33;5.00;5.00;5.00;;
70740;Laerm;58330;51.888;11.052;2023-06-01T10:07:03;5.00;5.00;5.00;;
70740;Laerm;58330;51.888;11.052;2023-06-01T10:09:42;5.00;5.00;5.00;;
70740;Laerm;58330;51.888;11.052;2023-06-01T10:12:11;5.00;5.00;5.00;;
70740;Laerm;58330;51.888;11.052;2023-06-01T10:14:38;60.01;5.00;96.29;;
70740;Laerm;58330;51.888;11.052;2023-06-01T10:17:05;33.06;30.48;46.89;;
70740;Laerm;58330;51.888;11.052;2023-06-01T10:19:32;36.46;31.58;53.81;;
70740;Laerm;58330;51.888;11.052;2023-06-01T10:21:59;32.97;30.70;40.75;;
70740;Laerm;58330;51.888;11.052;2023-06-01T10:24:26;32.62;30.51;44.75;;
70740;Laerm;58330;51.888;11.052;2023-06-01T10:27:02;32.61;30.49;44.63;;
70740;Laerm;58330;51.888;11.052;2023-06-01T10:29:32;31.94;29.88;35.26;;
70740;Laerm;58330;51.888;11.052;2023-06-01T10:31:59;31.82;30.36;39.08;;
70740;Laerm;58330;51.888;11.052;2023-06-01T10:34:38;31.99;30.15;42.79;;
70740;Laerm;58330;51.888;11.052;2023-06-01T10:37:15;32.15;30.22;43.73;;
70740;Laerm;58330;51.888;11.052;2023-06-01T10:39:42;59.01;-324.33;95.52;;
70740;Laerm;58330;51.888;11.052;2023-06-01T10:44:58;5.00;5.00;5.00;;
70740;Laerm;58330;51.888;11.052;2023-06-01T10:47:43;5.00;5.00;5.00;;
70740;Laerm;58330;51.888;11.052;2023-06-01T10:50:10;59.52;5.00;96.27;;
70740;Laerm;58330;51.888;11.052;2023-06-01T10:52:40;32.51;30.52;37.48;;
70740;Laerm;58330;51.888;11.052;2023-06-01T10:55:25;32.44;30.81;38.53;;
70740;Laerm;58330;51.888;11.052;2023-06-01T10:57:59;32.61;30.53;39.19;;
70740;Laerm;58330;51.888;11.052;2023-06-01T11:00:46;32.29;30.79;41.93;;
70740;Laerm;58330;51.888;11.052;2023-06-01T11:03:12;32.01;30.43;34.91;;
70740;Laerm;58330;51.888;11.052;2023-06-01T11:05:40;32.35;30.83;35.43;;
70740;Laerm;58330;51.888;11.052;2023-06-01T11:08:08;32.54;30.48;35.95;;
70740;Laerm;58330;51.888;11.052;2023-06-01T11:10:54;32.60;30.59;39.51;;
70740;Laerm;58330;51.888;11.052;2023-06-01T11:13:23;32.38;30.72;37.84;;
70740;Laerm;58330;51.888;11.052;2023-06-01T11:21:36;32.83;30.84;46.25;;
70740;Laerm;58330;51.888;11.052;2023-06-01T11:24:13;32.48;30.78;37.52;;
70740;Laerm;58330;51.888;11.052;2023-06-01T11:26:41;32.45;30.69;40.40;;
70740;Laerm;58330;51.888;11.052;2023-06-01T11:29:09;59.02;-327.34;95.28;;
70740;Laerm;58330;51.888;11.052;2023-06-01T11:31:37;5.00;5.00;5.00;;
70740;Laerm;58330;51.888;11.052;2023-06-01T11:34:05;5.00;5.00;5.00;;
70740;Laerm;58330;51.888;11.052;2023-06-01T11:36:37;5.00;5.00;5.00;;
70740;Laerm;58330;51.888;11.052;2023-06-01T11:39:04;5.00;5.00;5.00;;
70740;Laerm;58330;51.888;11.052;2023-06-01T11:41:33;5.00;5.00;5.00;;
70740;Laerm;58330;51.888;11.052;2023-06-01T11:44:00;5.00;5.00;5.00;;
70740;Laerm;58330;51.888;11.052;2023-06-01T11:46:26;5.00;5.00;5.00;;
70740;Laerm;58330;51.888;11.052;2023-06-01T11:48:59;5.00;5.00;5.00;;
70740;Laerm;58330;51.888;11.052;2023-06-01T11:51:28;5.00;5.00;5.00;;
70740;Laerm;58330;51.888;11.052;2023-06-01T11:53:55;5.00;5.00;5.00;;
70740;Laerm;58330;51.888;11.052;2023-06-01T11:56:30;5.00;5.00;5.00;;
70740;Laerm;58330;51.888;11.052;2023-06-01T11:59:10;5.00;5.00;5.00;;
70740;Laerm;58330;51.888;11.052;2023-06-01T12:01:41;5.00;5.00;5.00;;
70740;Laerm;58330;51.888;11.052;2023-06-01T12:04:11;5.00;5.00;5.00;;
70740;Laerm;58330;51.888;11.052;2023-06-01T12:06:37;5.00;5.00;5.00;;
70740;Laerm;58330;51.888;11.052;2023-06-01T12:09:06;5.00;5.00;5.00;;
70740;Laerm;58330;51.888;11.052;2023-06-01T12:11:33;5.00;5.00;5.00;;
70740;Laerm;58330;51.888;11.052;2023-06-01T12:14:00;5.00;5.00;5.00;;
70740;Laerm;58330;51.888;11.052;2023-06-01T12:19:09;5.00;5.00;5.00;;
70740;Laerm;58330;51.888;11.052;2023-06-01T12:21:35;5.00;5.00;5.00;;
70740;Laerm;58330;51.888;11.052;2023-06-01T12:24:01;5.00;5.00;5.00;;
70740;Laerm;58330;51.888;11.052;2023-06-01T12:26:36;5.00;5.00;5.00;;
70740;Laerm;58330;51.888;11.052;2023-06-01T12:29:02;5.00;5.00;5.00;;
70740;Laerm;58330;51.888;11.052;2023-06-01T12:31:28;5.00;5.00;5.00;;
70740;Laerm;58330;51.888;11.052;2023-06-01T12:33:55;5.00;5.00;5.00;;
70740;Laerm;58330;51.888;11.052;2023-06-01T12:36:28;5.00;5.00;5.00;;
70740;Laerm;58330;51.888;11.052;2023-06-01T12:38:56;5.00;5.00;5.00;;
70740;Laerm;58330;51.888;11.052;2023-06-01T12:41:24;5.00;5.00;5.00;;
70740;Laerm;58330;51.888;11.052;2023-06-01T12:43:51;5.00;5.00;5.00;;
70740;Laerm;58330;51.888;11.052;2023-06-01T12:46:18;5.00;5.00;5.00;;
70740;Laerm;58330;51.888;11.052;2023-06-01T12:48:45;5.00;5.00;5.00;;
70740;Laerm;58330;51.888;11.052;2023-06-01T12:51:11;5.00;5.00;5.00;;
70740;Laerm;58330;51.888;11.052;2023-06-01T12:53:38;5.00;5.00;5.00;;
70740;Laerm;58330;51.888;11.052;2023-06-01T12:56:05;5.00;5.00;5.00;;
70740;Laerm;58330;51.888;11.052;2023-06-01T12:58:31;5.00;5.00;5.00;;
70740;Laerm;58330;51.888;11.052;2023-06-01T13:00:59;5.00;5.00;5.00;;
70740;Laerm;58330;51.888;11.052;2023-06-01T13:03:26;5.00;5.00;5.00;;
70740;Laerm;58330;51.888;11.052;2023-06-01T13:05:53;5.00;5.00;5.00;;
70740;Laerm;58330;51.888;11.052;2023-06-01T13:08:19;5.00;5.00;5.00;;
70740;Laerm;58330;51.888;11.052;2023-06-01T13:10:50;5.00;5.00;5.00;;
70740;Laerm;58330;51.888;11.052;2023-06-01T13:13:16;5.00;5.00;5.00;;
70740;Laerm;58330;51.888;11.052;2023-06-01T13:15:43;5.00;5.00;5.00;;
70740;Laerm;58330;51.888;11.052;2023-06-01T13:18:11;5.00;5.00;5.00;;
70740;Laerm;58330;51.888;11.052;2023-06-01T13:20:38;5.00;5.00;5.00;;
70740;Laerm;58330;51.888;11.052;2023-06-01T13:23:05;5.00;5.00;5.00;;
70740;Laerm;58330;51.888;11.052;2023-06-01T13:25:31;5.00;5.00;5.00;;
70740;Laerm;58330;51.888;11.052;2023-06-01T13:27:59;5.00;5.00;5.00;;
70740;Laerm;58330;51.888;11.052;2023-06-01T13:30:26;5.00;5.00;5.00;;
70740;Laerm;58330;51.888;11.052;2023-06-01T13:32:52;5.00;5.00;5.00;;
70740;Laerm;58330;51.888;11.052;2023-06-01T13:35:20;5.00;5.00;5.00;;
70740;Laerm;58330;51.888;11.052;2023-06-01T13:37:46;5.00;5.00;5.00;;
70740;Laerm;58330;51.888;11.052;2023-06-01T13:40:13;5.00;5.00;5.00;;
70740;Laerm;58330;51.888;11.052;2023-06-01T13:42:43;5.00;5.00;5.00;;
70740;Laerm;58330;51.888;11.052;2023-06-01T13:45:09;5.00;5.00;5.00;;
70740;Laerm;58330;51.888;11.052;2023-06-01T13:47:36;5.00;5.00;5.00;;
70740;Laerm;58330;51.888;11.052;2023-06-01T13:50:03;5.00;5.00;5.00;;
70740;Laerm;58330;51.888;11.052;2023-06-01T13:52:31;5.00;5.00;5.00;;
70740;Laerm;58330;51.888;11.052;2023-06-01T13:54:57;5.00;5.00;5.00;;
70740;Laerm;58330;51.888;11.052;2023-06-01T13:57:23;5.00;5.00;5.00;;
70740;Laerm;58330;51.888;11.052;2023-06-01T13:59:50;5.00;5.00;5.00;;
70740;Laerm;58330;51.888;11.052;2023-06-01T14:02:16;5.00;5.00;5.00;;
70740;Laerm;58330;51.888;11.052;2023-06-01T14:04:42;5.00;5.00;5.00;;
70740;Laerm;58330;51.888;11.052;2023-06-01T14:07:09;5.00;5.00;5.00;;
70740;Laerm;58330;51.888;11.052;2023-06-01T14:09:37;5.00;5.00;5.00;;
70740;Laerm;58330;51.888;11.052;2023-06-01T14:12:03;5.00;5.00;5.00;;
70740;Laerm;58330;51.888;11.052;2023-06-01T14:14:30;5.00;5.00;5.00;;
70740;Laerm;58330;51.888;11.052;2023-06-01T14:16:56;5.00;5.00;5.00;;
70740;Laerm;58330;51.888;11.052;2023-06-01T14:19:23;5.00;5.00;5.00;;
70740;Laerm;58330;51.888;11.052;2023-06-01T14:21:51;5.00;5.00;5.00;;
70740;Laerm;58330;51.888;11.052;2023-06-01T14:24:18;5.00;5.00;5.00;;
70740;Laerm;58330;51.888;11.052;2023-06-01T14:26:45;5.00;5.00;5.00;;